Time;durP1;ratioP1;P1;durP2;ratioP2;P2;SDS_P1;SDS_P2;PMS_P1;PMS_P2;Temp;Humidity;BMP_temperature;BMP_pressure;BME280_temperature;BME280_humidity;BME280_pressure;Samples;Min_cycle;Max_cycle;Signal;HPM_P1;HPM_P2
2022/03/18 00:00:57;;;;;;;59.87;40.57;;;;;;;;;;5052657;28;20409;-77
2022/03/18 00:03:23;;;;;;;63.03;43.33;;;;;;;;;;5052518;28;20413;-77
2022/03/18 00:05:49;;;;;;;68.00;45.20;;;;;;;;;;5052689;28;20469;-77
2022/03/18 00:08:15;;;;;;;66.07;45.03;;;;;;;;;;5052441;28;20401;-77
2022/03/18 00:10:41;;;;;;;60.53;42.40;;;;;;;;;;5052495;28;20405;-77
2022/03/18 00:13:08;;;;;;;64.97;43.03;;;;;;;;;;5052358;28;20542;-77
2022/03/18 00:15:34;;;;;;;65.50;42.93;;;;;;;;;;5050955;28;20437;-76
2022/03/18 00:18:00;;;;;;;67.00;42.20;;;;;;;;;;5052403;28;20406;-77
2022/03/18 00:20:26;;;;;;;66.67;45.17;;;;;;;;;;5052708;28;20897;-77
2022/03/18 00:22:52;;;;;;;67.60;45.03;;;;;;;;;;5052667;28;20484;-77
2022/03/18 00:25:19;;;;;;;65.50;43.40;;;;;;;;;;5052466;28;20871;-77
2022/03/18 00:27:46;;;;;;;62.57;41.30;;;;;;;;;;5052387;28;20405;-77
2022/03/18 00:30:14;;;;;;;60.20;43.60;;;;;;;;;;5051166;28;20484;-77
2022/03/18 00:32:40;;;;;;;60.73;40.80;;;;;;;;;;5052233;28;20413;-77
2022/03/18 00:35:10;;;;;;;67.27;43.50;;;;;;;;;;5052161;28;20425;-76
2022/03/18 00:37:37;;;;;;;66.50;43.40;;;;;;;;;;5052092;28;20410;-77
2022/03/18 00:40:03;;;;;;;62.27;43.63;;;;;;;;;;5052098;28;20905;-77
2022/03/18 00:42:31;;;;;;;64.10;44.63;;;;;;;;;;5052325;28;20436;-77
2022/03/18 00:44:58;;;;;;;66.90;45.47;;;;;;;;;;5051725;28;20477;-76
2022/03/18 00:52:53;;;;;;;65.73;41.20;;;;;;;;;;5056554;28;20412;-77
2022/03/18 00:55:19;;;;;;;65.50;43.10;;;;;;;;;;5055841;28;20424;-77
2022/03/18 00:57:45;;;;;;;67.50;43.77;;;;;;;;;;5055554;28;20420;-77
2022/03/18 01:00:11;;;;;;;70.93;46.00;;;;;;;;;;5055609;28;20402;-77
2022/03/18 01:02:37;;;;;;;65.03;41.33;;;;;;;;;;5055590;28;20467;-77
2022/03/18 01:05:03;;;;;;;63.37;43.93;;;;;;;;;;5054059;28;20459;-76
2022/03/18 01:07:30;;;;;;;64.30;44.60;;;;;;;;;;5055403;28;20412;-77
2022/03/18 01:09:56;;;;;;;78.90;46.60;;;;;;;;;;5055609;28;20479;-77
2022/03/18 01:12:22;;;;;;;68.03;46.93;;;;;;;;;;5055373;28;20393;-77
2022/03/18 01:14:49;;;;;;;68.30;44.50;;;;;;;;;;5055247;28;20790;-76
2022/03/18 01:17:15;;;;;;;66.17;44.10;;;;;;;;;;5055258;28;20429;-77
2022/03/18 01:19:41;;;;;;;66.03;45.20;;;;;;;;;;5055442;28;20449;-77
2022/03/18 01:22:10;;;;;;;67.60;46.13;;;;;;;;;;5055494;28;20492;-77
2022/03/18 01:24:37;;;;;;;72.80;46.23;;;;;;;;;;5055382;28;20968;-77
2022/03/18 01:27:06;;;;;;;72.63;44.33;;;;;;;;;;5055071;28;20420;-77
2022/03/18 01:29:33;;;;;;;68.33;44.60;;;;;;;;;;5054999;28;20408;-77
2022/03/18 01:31:59;;;;;;;69.57;44.60;;;;;;;;;;5055296;28;20925;-77
2022/03/18 01:34:25;;;;;;;71.00;44.13;;;;;;;;;;5055021;28;20417;-77
2022/03/18 01:36:51;;;;;;;66.37;44.83;;;;;;;;;;5054988;28;20389;-77
2022/03/18 01:39:17;;;;;;;72.03;47.43;;;;;;;;;;5054982;28;20390;-77
2022/03/18 01:41:44;;;;;;;78.07;44.23;;;;;;;;;;5055279;28;20467;-77
2022/03/18 01:44:10;;;;;;;64.70;44.23;;;;;;;;;;5054755;28;20429;-77
2022/03/18 01:46:39;;;;;;;61.13;43.13;;;;;;;;;;5054960;28;20449;-77
2022/03/18 01:49:06;;;;;;;68.37;44.40;;;;;;;;;;5054919;28;20809;-77
2022/03/18 01:51:33;;;;;;;71.10;43.40;;;;;;;;;;5055199;28;20406;-77
2022/03/18 01:56:44;;;;;;;63.43;42.90;;;;;;;;;;5054963;28;20424;-77
2022/03/18 01:59:13;;;;;;;66.40;43.70;;;;;;;;;;5054772;28;20390;-77
2022/03/18 02:01:39;;;;;;;64.10;42.30;;;;;;;;;;5054589;28;20466;-78
2022/03/18 02:04:06;;;;;;;65.83;43.00;;;;;;;;;;5054766;28;20449;-77
2022/03/18 02:06:32;;;;;;;64.30;44.63;;;;;;;;;;5053404;28;20464;-77
2022/03/18 02:08:58;;;;;;;65.27;43.27;;;;;;;;;;5054697;28;20404;-77
2022/03/18 02:11:25;;;;;;;61.53;42.17;;;;;;;;;;5054418;28;20752;-78
2022/03/18 02:13:52;;;;;;;65.10;43.83;;;;;;;;;;5054409;28;20402;-77
2022/03/18 02:16:18;;;;;;;69.27;44.67;;;;;;;;;;5054233;28;20409;-77
2022/03/18 02:18:45;;;;;;;63.47;43.67;;;;;;;;;;5054234;28;20432;-77
2022/03/18 02:21:13;;;;;;;76.27;43.10;;;;;;;;;;5054319;28;20405;-76
2022/03/18 02:23:40;;;;;;;67.17;40.77;;;;;;;;;;5054119;28;20402;-76
2022/03/18 02:26:06;;;;;;;67.77;44.83;;;;;;;;;;5054053;28;20453;-76
2022/03/18 02:28:33;;;;;;;61.70;41.40;;;;;;;;;;5052999;28;20406;-76
2022/03/18 02:30:59;;;;;;;68.37;44.83;;;;;;;;;;5053982;28;20394;-76
2022/03/18 02:33:25;;;;;;;66.43;43.10;;;;;;;;;;5053745;28;20475;-77
2022/03/18 02:35:53;;;;;;;65.77;43.03;;;;;;;;;;5047165;28;21006;-78
2022/03/18 02:38:19;;;;;;;63.13;44.57;;;;;;;;;;5045895;28;20406;-77
2022/03/18 02:40:46;;;;;;;68.33;40.93;;;;;;;;;;5034119;28;20456;-77
2022/03/18 02:43:12;;;;;;;61.30;42.07;;;;;;;;;;5034086;28;20399;-77
2022/03/18 02:45:38;;;;;;;68.53;43.40;;;;;;;;;;5033752;28;20469;-77
2022/03/18 02:48:04;;;;;;;70.43;43.13;;;;;;;;;;5033818;28;20754;-77
2022/03/18 02:50:30;;;;;;;66.73;45.07;;;;;;;;;;5032452;28;20433;-77
2022/03/18 02:52:56;;;;;;;61.80;42.53;;;;;;;;;;5034075;28;20895;-77
2022/03/18 02:55:23;;;;;;;66.10;42.63;;;;;;;;;;5033593;28;20418;-77
2022/03/18 02:57:49;;;;;;;68.17;45.00;;;;;;;;;;5033545;28;20407;-77
2022/03/18 03:00:16;;;;;;;66.20;43.73;;;;;;;;;;5033612;28;20403;-77
2022/03/18 03:02:43;;;;;;;63.63;43.27;;;;;;;;;;5033879;28;20460;-77
2022/03/18 03:08:00;;;;;;;60.00;42.60;;;;;;;;;;5033517;28;20386;-77
2022/03/18 03:10:28;;;;;;;60.70;43.20;;;;;;;;;;5033721;28;20864;-77
2022/03/18 03:12:54;;;;;;;61.97;43.37;;;;;;;;;;5033003;28;20477;-77
2022/03/18 03:15:20;;;;;;;64.70;40.53;;;;;;;;;;5033193;28;20428;-77
2022/03/18 03:17:46;;;;;;;59.77;43.20;;;;;;;;;;5033268;28;20464;-77
2022/03/18 03:20:13;;;;;;;65.50;42.20;;;;;;;;;;5033667;28;20417;-77
2022/03/18 03:22:39;;;;;;;65.03;43.43;;;;;;;;;;5032222;28;20418;-77
2022/03/18 03:25:05;;;;;;;62.70;41.43;;;;;;;;;;5033487;28;20509;-77
2022/03/18 03:27:31;;;;;;;60.47;41.73;;;;;;;;;;5033302;28;20413;-77
2022/03/18 03:29:59;;;;;;;67.53;44.97;;;;;;;;;;5031811;28;20414;-77
2022/03/18 03:32:25;;;;;;;68.33;45.10;;;;;;;;;;5033094;28;20395;-77
2022/03/18 03:34:51;;;;;;;63.17;43.67;;;;;;;;;;5032837;28;20434;-77
2022/03/18 03:37:17;;;;;;;66.57;44.73;;;;;;;;;;5033351;28;20460;-77
2022/03/18 03:39:44;;;;;;;69.23;43.00;;;;;;;;;;5033246;28;20414;-77
2022/03/18 03:42:10;;;;;;;68.30;42.90;;;;;;;;;;5032925;28;20409;-77
2022/03/18 03:44:36;;;;;;;64.07;43.23;;;;;;;;;;5054658;23;20462;-77
2022/03/18 03:47:03;;;;;;;61.47;41.77;;;;;;;;;;5029256;28;20484;-76
2022/03/18 03:49:29;;;;;;;65.00;43.40;;;;;;;;;;5032763;28;20403;-76
2022/03/18 03:51:55;;;;;;;60.33;41.63;;;;;;;;;;5031386;28;20448;-76
2022/03/18 03:54:21;;;;;;;64.37;41.50;;;;;;;;;;5032635;28;20391;-77
2022/03/18 03:56:47;;;;;;;64.70;44.03;;;;;;;;;;5032830;28;20399;-77
2022/03/18 03:59:13;;;;;;;69.73;42.57;;;;;;;;;;5031474;28;20411;-76
2022/03/18 04:01:39;;;;;;;61.17;44.00;;;;;;;;;;5032862;28;20445;-76
2022/03/18 04:04:05;;;;;;;63.47;41.70;;;;;;;;;;5032553;28;20902;-76
2022/03/18 04:06:32;;;;;;;70.97;44.47;;;;;;;;;;5032722;28;20533;-77
2022/03/18 04:08:59;;;;;;;64.50;43.23;;;;;;;;;;5024213;28;20928;-76
2022/03/18 04:11:25;;;;;;;58.90;42.27;;;;;;;;;;5013534;28;20419;-76
2022/03/18 04:13:51;;;;;;;61.10;41.70;;;;;;;;;;5013277;28;20399;-76
2022/03/18 04:16:17;;;;;;;61.03;41.43;;;;;;;;;;5012925;28;20419;-76
2022/03/18 04:18:43;;;;;;;61.07;41.77;;;;;;;;;;5012851;28;20500;-77
2022/03/18 04:21:09;;;;;;;63.93;43.37;;;;;;;;;;5013088;28;20411;-76
2022/03/18 04:23:35;;;;;;;70.37;42.80;;;;;;;;;;5013674;28;20417;-76
2022/03/18 04:26:01;;;;;;;65.33;44.50;;;;;;;;;;5017096;28;20486;-77
2022/03/18 04:28:27;;;;;;;63.43;41.60;;;;;;;;;;5015870;28;20415;-76
2022/03/18 04:30:53;;;;;;;73.83;44.70;;;;;;;;;;5016449;28;20483;-76
2022/03/18 04:33:19;;;;;;;65.13;43.17;;;;;;;;;;5015121;28;20423;-76
2022/03/18 04:35:45;;;;;;;62.77;44.23;;;;;;;;;;5016055;28;20426;-76
2022/03/18 04:38:11;;;;;;;68.47;43.50;;;;;;;;;;5016296;28;20407;-77
2022/03/18 04:40:37;;;;;;;63.07;42.37;;;;;;;;;;5016543;28;20407;-77
2022/03/18 04:43:04;;;;;;;61.50;42.23;;;;;;;;;;5016593;28;20804;-76
2022/03/18 04:45:30;;;;;;;63.13;41.77;;;;;;;;;;5016490;28;20466;-76
2022/03/18 04:47:56;;;;;;;66.10;41.40;;;;;;;;;;5015211;28;20399;-77
2022/03/18 04:50:22;;;;;;;59.87;41.03;;;;;;;;;;5015080;28;20414;-77
2022/03/18 04:52:48;;;;;;;68.87;44.30;;;;;;;;;;5015575;28;20788;-77
2022/03/18 04:55:14;;;;;;;61.63;41.17;;;;;;;;;;5033676;28;20438;-76
2022/03/18 04:57:40;;;;;;;57.10;38.83;;;;;;;;;;5035993;28;20721;-77
2022/03/18 05:00:07;;;;;;;55.57;40.50;;;;;;;;;;5035613;28;20501;-77
2022/03/18 05:02:35;;;;;;;55.53;38.10;;;;;;;;;;5037112;28;20399;-77
2022/03/18 05:05:02;;;;;;;57.77;41.33;;;;;;;;;;5037901;28;20488;-77
2022/03/18 05:07:28;;;;;;;58.20;39.57;;;;;;;;;;5036618;28;20398;-76
2022/03/18 05:09:54;;;;;;;56.37;39.70;;;;;;;;;;5035550;28;20494;-77
2022/03/18 05:12:20;;;;;;;59.77;39.77;;;;;;;;;;5035813;28;20822;-76
2022/03/18 05:14:46;;;;;;;59.07;41.73;;;;;;;;;;5035617;28;20934;-76
2022/03/18 05:17:13;;;;;;;59.30;39.37;;;;;;;;;;5035670;28;20422;-76
2022/03/18 05:19:39;;;;;;;58.80;39.20;;;;;;;;;;5035488;28;20410;-76
2022/03/18 05:22:06;;;;;;;59.03;40.07;;;;;;;;;;5036303;28;20395;-76
2022/03/18 05:24:32;;;;;;;60.93;41.30;;;;;;;;;;5034368;28;20407;-76
2022/03/18 05:26:58;;;;;;;62.20;40.67;;;;;;;;;;5035527;28;20494;-76
2022/03/18 05:29:26;;;;;;;63.73;40.00;;;;;;;;;;5035433;28;20814;-78
2022/03/18 05:31:52;;;;;;;57.73;40.40;;;;;;;;;;5034258;28;20406;-77
2022/03/18 05:34:18;;;;;;;62.07;41.43;;;;;;;;;;5034821;28;20441;-77
2022/03/18 05:36:45;;;;;;;55.33;40.53;;;;;;;;;;5035100;28;20485;-76
2022/03/18 05:39:11;;;;;;;54.57;40.20;;;;;;;;;;5035280;28;20399;-76
2022/03/18 05:41:37;;;;;;;57.87;39.47;;;;;;;;;;5035550;28;20813;-76
2022/03/18 05:44:04;;;;;;;54.30;38.67;;;;;;;;;;5035520;28;20514;-77
2022/03/18 05:46:30;;;;;;;62.90;41.93;;;;;;;;;;5035730;28;20868;-77
2022/03/18 05:48:56;;;;;;;55.60;38.23;;;;;;;;;;5035366;28;20406;-76
2022/03/18 05:51:23;;;;;;;55.93;39.73;;;;;;;;;;5035380;28;20394;-76
2022/03/18 05:53:49;;;;;;;61.23;40.10;;;;;;;;;;5035692;28;20407;-76
2022/03/18 05:59:00;;;;;;;62.67;38.20;;;;;;;;;;5035713;28;20958;-77
2022/03/18 06:01:26;;;;;;;64.90;37.40;;;;;;;;;;5035854;28;20402;-75
2022/03/18 06:03:52;;;;;;;53.70;39.27;;;;;;;;;;5038372;28;20401;-76
2022/03/18 06:06:18;;;;;;;54.20;39.00;;;;;;;;;;5040394;28;20539;-75
2022/03/18 06:14:14;;;;;;;47.60;34.97;;;;;;;;;;5034382;28;20417;-77
2022/03/18 06:16:40;;;;;;;55.73;39.13;;;;;;;;;;5034753;28;20422;-78
2022/03/18 06:19:06;;;;;;;58.83;40.87;;;;;;;;;;5033923;28;20893;-78
2022/03/18 06:21:32;;;;;;;66.23;41.57;;;;;;;;;;5032956;28;20437;-77
2022/03/18 06:23:58;;;;;;;52.27;35.90;;;;;;;;;;5034357;28;20470;-77
2022/03/18 06:26:24;;;;;;;52.37;37.10;;;;;;;;;;5034091;28;20847;-77
2022/03/18 06:28:51;;;;;;;51.07;36.27;;;;;;;;;;5034988;28;20405;-77
2022/03/18 06:31:17;;;;;;;55.33;38.67;;;;;;;;;;5030324;28;20410;-74
2022/03/18 06:33:46;;;;;;;58.60;37.93;;;;;;;;;;5036505;28;20777;-77
2022/03/18 06:36:13;;;;;;;51.00;37.33;;;;;;;;;;5050157;28;20441;-77
2022/03/18 06:38:39;;;;;;;55.63;37.40;;;;;;;;;;5033176;28;20425;-77
2022/03/18 06:41:05;;;;;;;49.37;34.67;;;;;;;;;;5036486;28;20937;-77
2022/03/18 06:43:31;;;;;;;54.87;37.00;;;;;;;;;;5036043;28;20490;-75
2022/03/18 06:45:57;;;;;;;60.53;35.30;;;;;;;;;;5033819;28;20489;-77
2022/03/18 06:48:24;;;;;;;46.67;34.40;;;;;;;;;;5033109;28;20422;-77
2022/03/18 06:50:50;;;;;;;52.33;34.10;;;;;;;;;;5034904;28;20851;-75
2022/03/18 06:53:16;;;;;;;51.27;34.17;;;;;;;;;;5034579;28;20476;-75
2022/03/18 06:55:42;;;;;;;56.57;34.57;;;;;;;;;;5033987;28;20433;-76
2022/03/18 06:58:08;;;;;;;48.37;32.53;;;;;;;;;;5032505;28;20419;-76
2022/03/18 07:00:35;;;;;;;49.13;34.40;;;;;;;;;;5033335;28;20422;-75
2022/03/18 07:03:02;;;;;;;44.50;32.40;;;;;;;;;;5033940;28;20576;-77
2022/03/18 07:05:28;;;;;;;46.67;31.23;;;;;;;;;;5033803;28;20458;-77
2022/03/18 07:07:54;;;;;;;46.37;31.27;;;;;;;;;;5033138;28;20410;-76
2022/03/18 07:10:20;;;;;;;44.70;30.83;;;;;;;;;;5033525;28;20500;-76
2022/03/18 07:12:46;;;;;;;44.90;29.87;;;;;;;;;;5034076;28;20827;-76
2022/03/18 07:15:12;;;;;;;43.60;29.20;;;;;;;;;;5033214;28;20431;-77
2022/03/18 07:20:23;;;;;;;42.47;30.83;;;;;;;;;;5031893;28;20416;-77
2022/03/18 07:23:21;;;;;;;40.85;31.95;;;;;;;;;;5032205;28;20473;-78
2022/03/18 07:25:48;;;;;;;36.20;28.07;;;;;;;;;;5024156;28;20212;-77
2022/03/18 07:28:15;;;;;;;40.00;28.33;;;;;;;;;;5031488;28;20403;-77
2022/03/18 07:30:42;;;;;;;44.00;29.48;;;;;;;;;;5032528;28;20769;-77
2022/03/18 07:33:08;;;;;;;42.87;29.57;;;;;;;;;;5032824;28;20225;-77
2022/03/18 07:35:35;;;;;;;41.23;28.60;;;;;;;;;;5033128;28;20434;-76
2022/03/18 07:38:02;;;;;;;39.03;29.10;;;;;;;;;;5033205;28;20418;-77
2022/03/18 07:40:28;;;;;;;41.73;29.03;;;;;;;;;;5032808;28;20437;-77
2022/03/18 07:42:55;;;;;;;41.30;29.57;;;;;;;;;;5032346;28;20422;-78
2022/03/18 07:45:28;;;;;;;41.57;28.07;;;;;;;;;;5032339;28;20983;-77
2022/03/18 07:47:57;;;;;;;40.30;28.53;;;;;;;;;;5032625;28;20429;-77
2022/03/18 07:50:24;;;;;;;42.73;30.00;;;;;;;;;;5043990;28;20414;-76
2022/03/18 07:52:51;;;;;;;42.33;29.20;;;;;;;;;;5033554;28;20612;-75
2022/03/18 07:55:18;;;;;;;44.03;29.20;;;;;;;;;;5034499;28;20422;-76
2022/03/18 07:57:44;;;;;;;36.63;26.90;;;;;;;;;;5031379;28;20794;-76
2022/03/18 08:00:14;;;;;;;34.37;27.93;;;;;;;;;;5037680;28;20926;-76
2022/03/18 08:02:41;;;;;;;42.07;30.50;;;;;;;;;;5038520;28;20903;-76
2022/03/18 08:05:07;;;;;;;39.87;29.60;;;;;;;;;;5036989;28;20978;-76
2022/03/18 08:07:34;;;;;;;39.13;28.43;;;;;;;;;;5054565;28;20462;-75
2022/03/18 08:10:00;;;;;;;37.33;28.23;;;;;;;;;;5055577;28;20403;-76
2022/03/18 08:12:30;;;;;;;35.10;27.90;;;;;;;;;;5038329;28;20434;-76
2022/03/18 08:14:57;;;;;;;39.33;27.90;;;;;;;;;;5037848;28;20502;-76
2022/03/18 08:17:23;;;;;;;36.33;25.20;;;;;;;;;;5037401;28;20425;-75
2022/03/18 08:19:51;;;;;;;38.60;25.87;;;;;;;;;;5036593;28;20898;-76
2022/03/18 08:22:18;;;;;;;38.33;26.37;;;;;;;;;;5039976;28;20421;-76
2022/03/18 08:24:44;;;;;;;35.77;25.00;;;;;;;;;;5057012;28;20417;-76
2022/03/18 08:27:10;;;;;;;33.53;23.53;;;;;;;;;;5056829;28;20405;-76
2022/03/18 08:29:38;;;;;;;34.27;25.37;;;;;;;;;;5056767;28;20426;-76
2022/03/18 08:32:04;;;;;;;31.33;24.90;;;;;;;;;;5037207;28;20426;-76
2022/03/18 08:34:30;;;;;;;36.90;24.97;;;;;;;;;;5036817;28;20910;-77
2022/03/18 08:36:56;;;;;;;35.73;25.50;;;;;;;;;;5044238;28;20924;-76
2022/03/18 08:39:22;;;;;;;38.07;26.33;;;;;;;;;;5056880;28;20467;-76
2022/03/18 08:41:48;;;;;;;34.70;25.40;;;;;;;;;;5056923;28;20409;-76
2022/03/18 08:44:19;;;;;;;31.00;23.97;;;;;;;;;;5057301;28;21003;-76
2022/03/18 08:46:45;;;;;;;44.73;28.90;;;;;;;;;;5055972;28;20464;-76
2022/03/18 08:49:11;;;;;;;34.57;25.80;;;;;;;;;;5048716;28;20413;-76
2022/03/18 08:51:38;;;;;;;39.37;26.77;;;;;;;;;;5036606;28;20891;-76
2022/03/18 08:54:05;;;;;;;37.97;26.63;;;;;;;;;;5035340;28;20410;-76
2022/03/18 08:56:31;;;;;;;33.67;26.47;;;;;;;;;;5036770;28;20800;-76
2022/03/18 08:58:58;;;;;;;34.40;26.77;;;;;;;;;;5036613;28;20768;-76
2022/03/18 09:01:25;;;;;;;36.00;27.07;;;;;;;;;;5027033;28;20772;-76
2022/03/18 09:03:51;;;;;;;37.23;25.80;;;;;;;;;;5037576;28;20468;-76
2022/03/18 09:06:17;;;;;;;42.17;31.30;;;;;;;;;;5035804;28;20865;-77
2022/03/18 09:08:44;;;;;;;40.33;28.30;;;;;;;;;;5037335;28;20902;-76
2022/03/18 09:11:10;;;;;;;43.40;25.93;;;;;;;;;;5040499;28;20402;-76
2022/03/18 09:13:36;;;;;;;34.10;25.77;;;;;;;;;;5037778;28;20505;-76
2022/03/18 09:16:04;;;;;;;36.90;28.83;;;;;;;;;;5036370;28;20461;-77
2022/03/18 09:18:30;;;;;;;38.33;27.70;;;;;;;;;;5036695;28;20465;-76
2022/03/18 09:20:56;;;;;;;38.20;26.70;;;;;;;;;;5036872;28;20422;-76
2022/03/18 09:23:23;;;;;;;38.17;28.07;;;;;;;;;;5036607;28;20781;-76
2022/03/18 09:25:49;;;;;;;39.47;28.57;;;;;;;;;;5040977;28;20466;-77
2022/03/18 09:28:16;;;;;;;37.50;27.50;;;;;;;;;;5035673;28;20422;-77
2022/03/18 09:30:42;;;;;;;34.47;24.90;;;;;;;;;;5037569;28;20423;-77
2022/03/18 09:33:08;;;;;;;36.63;27.20;;;;;;;;;;5037640;28;20493;-77
2022/03/18 09:35:34;;;;;;;34.70;27.75;;;;;;;;;;5034113;28;20888;-76
2022/03/18 09:38:01;;;;;;;33.73;25.90;;;;;;;;;;5035275;28;20172;-75
2022/03/18 09:40:27;;;;;;;37.33;27.00;;;;;;;;;;5035723;28;20789;-75
2022/03/18 09:42:57;;;;;;;33.87;24.97;;;;;;;;;;5036756;28;20488;-76
2022/03/18 09:45:25;;;;;;;37.80;26.50;;;;;;;;;;5036031;28;20458;-77
2022/03/18 09:47:51;;;;;;;35.37;25.17;;;;;;;;;;5035950;28;20430;-76
2022/03/18 09:50:18;;;;;;;31.60;24.13;;;;;;;;;;5035684;28;20497;-76
2022/03/18 09:52:44;;;;;;;40.50;26.10;;;;;;;;;;5036307;28;20477;-76
2022/03/18 09:55:10;;;;;;;34.83;25.33;;;;;;;;;;5035393;28;20438;-76
2022/03/18 09:57:36;;;;;;;34.42;25.55;;;;;;;;;;5033939;28;20409;-78
2022/03/18 10:00:03;;;;;;;33.70;25.60;;;;;;;;;;5034443;28;20172;-76
2022/03/18 10:02:30;;;;;;;33.90;24.97;;;;;;;;;;5033379;28;20848;-76
2022/03/18 10:04:57;;;;;;;30.60;22.63;;;;;;;;;;5034771;28;20434;-76
2022/03/18 10:07:23;;;;;;;30.63;23.57;;;;;;;;;;5034669;28;20406;-75
2022/03/18 10:09:49;;;;;;;41.50;25.67;;;;;;;;;;5034237;28;20442;-76
2022/03/18 10:12:28;;;;;;;33.37;22.80;;;;;;;;;;5034447;28;20422;-76
2022/03/18 10:15:05;;;;;;;33.73;23.50;;;;;;;;;;5035124;28;20441;-75
2022/03/18 10:17:38;;;;;;;37.30;24.63;;;;;;;;;;5036038;28;20422;-76
2022/03/18 10:20:04;;;;;;;32.90;24.67;;;;;;;;;;5033600;28;20494;-76
2022/03/18 10:22:30;;;;;;;29.30;21.80;;;;;;;;;;5033470;28;20411;-75
2022/03/18 10:24:56;;;;;;;36.27;24.77;;;;;;;;;;5033333;28;20427;-76
2022/03/18 10:27:23;;;;;;;29.70;22.73;;;;;;;;;;5033428;28;20434;-75
2022/03/18 10:29:56;;;;;;;35.53;24.73;;;;;;;;;;5034311;28;20418;-75
2022/03/18 10:32:24;;;;;;;41.27;23.37;;;;;;;;;;5034312;28;20421;-76
2022/03/18 10:37:40;;;;;;;28.97;21.03;;;;;;;;;;5022347;28;20390;-77
2022/03/18 10:40:07;;;;;;;29.07;22.27;;;;;;;;;;5032214;28;20949;-76
2022/03/18 10:42:33;;;;;;;29.87;21.17;;;;;;;;;;5034602;28;20390;-77
2022/03/18 10:45:00;;;;;;;28.93;22.80;;;;;;;;;;5032835;28;20462;-77
2022/03/18 10:47:31;;;;;;;32.60;23.70;;;;;;;;;;5038298;28;20414;-77
2022/03/18 10:50:13;;;;;;;29.00;22.33;;;;;;;;;;5038759;28;20879;-77
2022/03/18 10:52:48;;;;;;;27.13;22.03;;;;;;;;;;5036438;28;20984;-76
2022/03/18 10:55:15;;;;;;;27.10;21.33;;;;;;;;;;5035056;28;20513;-77
2022/03/18 10:57:48;;;;;;;31.77;21.10;;;;;;;;;;5033139;28;20457;-75
2022/03/18 11:00:14;;;;;;;33.00;21.00;;;;;;;;;;5050010;28;20467;-76
2022/03/18 11:02:40;;;;;;;28.53;19.40;;;;;;;;;;5034882;28;20450;-76
2022/03/18 11:05:06;;;;;;;26.07;20.80;;;;;;;;;;5031174;28;20466;-75
2022/03/18 11:07:34;;;;;;;29.90;20.13;;;;;;;;;;5033546;28;20427;-76
2022/03/18 11:12:47;;;;;;;29.33;20.47;;;;;;;;;;5034158;28;20890;-76
2022/03/18 11:15:14;;;;;;;26.73;21.10;;;;;;;;;;5033707;28;20419;-76
2022/03/18 11:17:40;;;;;;;24.83;19.60;;;;;;;;;;5031396;28;20506;-76
2022/03/18 11:20:07;;;;;;;29.57;20.53;;;;;;;;;;5033868;28;20419;-76
2022/03/18 11:22:36;;;;;;;25.20;18.87;;;;;;;;;;5034376;28;20821;-77
2022/03/18 11:25:03;;;;;;;29.90;21.57;;;;;;;;;;5034013;28;20899;-75
2022/03/18 11:27:30;;;;;;;29.23;21.70;;;;;;;;;;5032620;28;20418;-76
2022/03/18 11:30:16;;;;;;;28.70;21.93;;;;;;;;;;5033893;28;20879;-77
2022/03/18 11:32:42;;;;;;;25.67;21.73;;;;;;;;;;5032433;28;20418;-76
2022/03/18 11:35:08;;;;;;;27.00;18.87;;;;;;;;;;5034224;28;20442;-76
2022/03/18 11:37:35;;;;;;;29.80;21.02;;;;;;;;;;5033744;28;20467;-77
2022/03/18 11:40:35;;;;;;;32.63;22.43;;;;;;;;;;5032455;28;20206;-76
2022/03/18 11:43:21;;;;;;;30.93;23.00;;;;;;;;;;5001538;28;20882;-76
2022/03/18 11:45:47;;;;;;;29.30;22.27;;;;;;;;;;5031983;28;20477;-76
2022/03/18 11:48:32;;;;;;;29.27;22.00;;;;;;;;;;5032813;28;20414;-76
2022/03/18 11:50:58;;;;;;;27.80;21.03;;;;;;;;;;5032564;28;20455;-76
2022/03/18 11:53:42;;;;;;;28.37;20.90;;;;;;;;;;5033771;28;20418;-76
2022/03/18 11:56:09;;;;;;;34.80;20.67;;;;;;;;;;5032760;28;20495;-76
2022/03/18 11:58:35;;;;;;;33.73;22.43;;;;;;;;;;5032661;28;20428;-76
2022/03/18 12:01:01;;;;;;;39.67;24.00;;;;;;;;;;5031422;28;20422;-76
2022/03/18 12:03:31;;;;;;;27.77;23.27;;;;;;;;;;5036732;28;20941;-76
2022/03/18 12:05:59;;;;;;;25.50;18.73;;;;;;;;;;5033038;28;20465;-76
2022/03/18 12:08:44;;;;;;;29.37;21.60;;;;;;;;;;5032983;28;20414;-76
2022/03/18 12:11:26;;;;;;;29.97;22.47;;;;;;;;;;5025879;28;20501;-76
2022/03/18 12:13:53;;;;;;;28.97;21.80;;;;;;;;;;5035435;28;20793;-76
2022/03/18 12:16:19;;;;;;;25.77;21.10;;;;;;;;;;5033152;28;20847;-75
2022/03/18 12:18:46;;;;;;;24.57;20.33;;;;;;;;;;5032375;28;20419;-75
2022/03/18 12:21:12;;;;;;;23.23;19.50;;;;;;;;;;5032319;28;20418;-75
2022/03/18 12:23:38;;;;;;;25.30;20.60;;;;;;;;;;5032923;28;20933;-76
2022/03/18 12:26:05;;;;;;;24.73;20.07;;;;;;;;;;5032683;28;20532;-76
2022/03/18 12:28:45;;;;;;;25.03;19.73;;;;;;;;;;5032965;28;20409;-75
2022/03/18 12:31:19;;;;;;;28.70;17.83;;;;;;;;;;5032221;28;20406;-75
2022/03/18 12:33:45;;;;;;;27.97;20.13;;;;;;;;;;5032575;28;20422;-75
2022/03/18 12:36:13;;;;;;;29.30;21.33;;;;;;;;;;5031720;28;20438;-74
2022/03/18 12:38:43;;;;;;;25.67;19.67;;;;;;;;;;5033966;28;20467;-76
2022/03/18 12:41:10;;;;;;;28.93;21.37;;;;;;;;;;5033691;28;20425;-76
2022/03/18 12:43:36;;;;;;;26.63;19.40;;;;;;;;;;5033055;28;20418;-76
2022/03/18 12:46:04;;;;;;;26.67;20.60;;;;;;;;;;5034366;28;20470;-77
2022/03/18 12:48:30;;;;;;;24.95;21.83;;;;;;;;;;5034045;28;20929;-76
2022/03/18 12:50:57;;;;;;;28.60;20.33;;;;;;;;;;5034765;28;20299;-76
2022/03/18 12:53:28;;;;;;;27.35;21.63;;;;;;;;;;5049209;28;20964;-76
2022/03/18 12:55:55;;;;;;;28.03;20.50;;;;;;;;;;5036473;28;20196;-76
2022/03/18 12:58:22;;;;;;;27.17;21.13;;;;;;;;;;5035379;28;20825;-76
2022/03/18 13:00:55;;;;;;;27.17;20.67;;;;;;;;;;5056991;23;20485;-76
2022/03/18 13:03:23;;;;;;;28.43;20.17;;;;;;;;;;5031857;28;20437;-76
2022/03/18 13:05:52;;;;;;;28.20;21.53;;;;;;;;;;5034778;28;20541;-76
2022/03/18 13:08:18;;;;;;;25.10;20.50;;;;;;;;;;5035266;28;20426;-76
2022/03/18 13:10:53;;;;;;;31.07;20.90;;;;;;;;;;5035786;28;20414;-76
2022/03/18 13:13:20;;;;;;;29.70;20.63;;;;;;;;;;5035675;28;20434;-76
2022/03/18 13:15:52;;;;;;;28.40;20.00;;;;;;;;;;5034555;28;20784;-76
2022/03/18 13:18:18;;;;;;;29.33;21.17;;;;;;;;;;5035148;28;20441;-76
2022/03/18 13:20:48;;;;;;;29.70;21.43;;;;;;;;;;5035345;28;20427;-76
2022/03/18 13:23:17;;;;;;;28.50;20.67;;;;;;;;;;5035605;28;20422;-76
2022/03/18 13:25:44;;;;;;;29.40;20.90;;;;;;;;;;5035807;28;20965;-76
2022/03/18 13:28:11;;;;;;;27.17;19.93;;;;;;;;;;5027352;28;20746;-76
2022/03/18 13:33:23;;;;;;;25.53;20.47;;;;;;;;;;5035000;28;20402;-75
2022/03/18 13:35:50;;;;;;;27.70;19.73;;;;;;;;;;5034358;28;20422;-75
2022/03/18 13:38:18;;;;;;;26.80;20.73;;;;;;;;;;5034968;28;20501;-76
2022/03/18 13:41:01;;;;;;;25.73;19.90;;;;;;;;;;5035580;28;20430;-76
2022/03/18 13:43:37;;;;;;;31.70;21.90;;;;;;;;;;5033889;28;20418;-75
2022/03/18 13:46:16;;;;;;;24.63;19.10;;;;;;;;;;5035030;28;20537;-76
2022/03/18 13:48:43;;;;;;;23.97;20.27;;;;;;;;;;5034113;28;20426;-75
2022/03/18 13:51:10;;;;;;;27.13;19.77;;;;;;;;;;5035138;28;20954;-76
2022/03/18 13:53:37;;;;;;;26.97;21.80;;;;;;;;;;5035620;28;20406;-75
2022/03/18 13:56:16;;;;;;;31.47;22.53;;;;;;;;;;5034654;28;20501;-77
2022/03/18 13:58:43;;;;;;;26.50;21.67;;;;;;;;;;5034206;28;20475;-76
2022/03/18 14:01:10;;;;;;;31.33;21.37;;;;;;;;;;5031674;28;20586;-76
2022/03/18 14:03:36;;;;;;;24.73;19.37;;;;;;;;;;5034460;28;20934;-76
2022/03/18 14:06:03;;;;;;;29.60;21.40;;;;;;;;;;5032276;28;20798;-76
2022/03/18 14:08:30;;;;;;;24.07;19.00;;;;;;;;;;5032047;28;20419;-75
2022/03/18 14:10:59;;;;;;;26.03;19.50;;;;;;;;;;5034077;28;20442;-75
2022/03/18 14:13:30;;;;;;;28.00;19.97;;;;;;;;;;5034451;28;20406;-76
2022/03/18 14:15:56;;;;;;;28.60;21.50;;;;;;;;;;5033947;28;20798;-75
2022/03/18 14:18:22;;;;;;;27.57;20.30;;;;;;;;;;5032964;28;20407;-76
2022/03/18 14:20:48;;;;;;;21.60;18.93;;;;;;;;;;5034505;28;21000;-76
2022/03/18 14:23:16;;;;;;;22.60;19.87;;;;;;;;;;5034942;28;20398;-75
2022/03/18 14:25:42;;;;;;;24.67;20.37;;;;;;;;;;5033414;28;20449;-75
2022/03/18 14:28:09;;;;;;;23.77;19.53;;;;;;;;;;5034197;28;20510;-75
2022/03/18 14:30:35;;;;;;;25.47;19.47;;;;;;;;;;5033698;28;20520;-75
2022/03/18 14:33:02;;;;;;;22.50;18.43;;;;;;;;;;5034275;28;20398;-75
2022/03/18 14:35:30;;;;;;;33.17;19.80;;;;;;;;;;5034296;28;20748;-75
2022/03/18 14:37:57;;;;;;;25.40;19.50;;;;;;;;;;5034256;28;20489;-75
2022/03/18 14:40:24;;;;;;;27.70;20.97;;;;;;;;;;5033725;28;20430;-75
2022/03/18 14:42:50;;;;;;;25.90;19.47;;;;;;;;;;5032662;28;20411;-76
2022/03/18 14:45:17;;;;;;;25.47;20.27;;;;;;;;;;5034101;28;20968;-75
2022/03/18 14:47:44;;;;;;;28.00;21.00;;;;;;;;;;5033753;28;20410;-75